createdAt,value
2022-11-16T00:01:07.601Z,25.50
2022-11-16T00:03:34.823Z,27.00
2022-11-16T00:06:03.800Z,27.25
2022-11-16T00:08:33.340Z,25.85
2022-11-16T00:11:14.807Z,25.75
2022-11-16T00:13:43.138Z,25.05
2022-11-16T00:16:17.623Z,25.38
2022-11-16T00:18:44.946Z,25.75
2022-11-16T00:21:11.731Z,23.65
2022-11-16T00:23:39.058Z,24.30
2022-11-16T00:26:07.015Z,27.02
2022-11-16T00:28:34.499Z,26.02
2022-11-16T00:31:03.956Z,25.42
2022-11-16T00:33:31.128Z,26.20
2022-11-16T00:35:57.978Z,24.80
2022-11-16T00:38:24.798Z,25.95
2022-11-16T00:40:51.555Z,24.38
2022-11-16T00:43:18.653Z,24.77
2022-11-16T00:45:45.391Z,24.35
2022-11-16T00:48:12.660Z,22.02
2022-11-16T00:50:39.726Z,23.73
2022-11-16T00:53:07.552Z,22.60
2022-11-16T00:55:34.426Z,23.65
2022-11-16T00:58:02.411Z,26.33
2022-11-16T01:00:29.289Z,24.95
2022-11-16T01:02:56.245Z,26.98
2022-11-16T01:05:24.533Z,24.27
2022-11-16T01:07:51.978Z,27.27
2022-11-16T01:10:21.407Z,24.15
2022-11-16T01:12:49.680Z,23.10
2022-11-16T01:15:17.750Z,24.25
2022-11-16T01:17:44.876Z,23.65
2022-11-16T01:20:17.549Z,22.25
2022-11-16T01:22:44.402Z,22.40
2022-11-16T01:25:12.311Z,21.58
2022-11-16T01:27:39.894Z,23.08
2022-11-16T01:30:13.046Z,22.25
2022-11-16T01:32:44.690Z,21.98
2022-11-16T01:35:16.455Z,22.40
2022-11-16T01:37:43.368Z,22.70
2022-11-16T01:40:11.517Z,22.05
2022-11-16T01:42:40.783Z,21.20
2022-11-16T01:45:20.144Z,21.02
2022-11-16T01:47:47.998Z,20.38
2022-11-16T01:50:19.001Z,20.67
2022-11-16T01:52:54.187Z,20.38
2022-11-16T01:55:23.064Z,19.40
2022-11-16T01:58:24.002Z,17.90
2022-11-16T02:00:57.386Z,18.10
2022-11-16T02:03:32.082Z,18.58
2022-11-16T02:06:07.340Z,18.38
2022-11-16T02:09:23.367Z,20.38
2022-11-16T02:12:26.541Z,17.52
2022-11-16T02:15:20.518Z,16.92
2022-11-16T02:20:50.911Z,16.23
2022-11-16T02:23:44.500Z,19.10
2022-11-16T02:26:43.572Z,17.08
2022-11-16T02:29:32.638Z,16.55
2022-11-16T02:32:02.425Z,18.88
2022-11-16T02:34:37.742Z,17.05
2022-11-16T02:39:33.186Z,16.05
2022-11-16T02:42:01.941Z,16.17
2022-11-16T02:44:39.284Z,17.30
2022-11-16T02:47:11.398Z,18.77
2022-11-16T02:49:43.932Z,19.73
2022-11-16T02:52:11.216Z,16.60
2022-11-16T02:54:38.371Z,16.58
2022-11-16T02:57:05.059Z,19.48
2022-11-16T02:59:43.470Z,19.95
2022-11-16T03:02:44.371Z,19.60
2022-11-16T03:05:33.933Z,20.60
2022-11-16T03:08:15.773Z,19.65
2022-11-16T03:11:04.756Z,21.27
2022-11-16T03:13:34.058Z,19.05
2022-11-16T03:16:05.796Z,17.95
2022-11-16T03:18:33.030Z,21.08
2022-11-16T03:21:16.620Z,21.35
2022-11-16T03:23:45.363Z,19.35
2022-11-16T03:26:14.090Z,18.73
2022-11-16T03:28:51.668Z,18.23
2022-11-16T03:31:29.241Z,17.30
2022-11-16T03:33:58.534Z,17.52
2022-11-16T03:36:30.158Z,16.80
2022-11-16T03:39:03.088Z,18.20
2022-11-16T03:41:33.702Z,17.02
2022-11-16T03:46:27.146Z,20.02
2022-11-16T03:48:58.874Z,19.17
2022-11-16T03:53:56.016Z,21.85
2022-11-16T03:56:23.304Z,25.50
2022-11-16T03:58:50.134Z,22.98
2022-11-16T04:01:17.817Z,26.90
2022-11-16T04:03:45.867Z,27.13
2022-11-16T04:06:31.328Z,25.42
2022-11-16T04:09:17.073Z,24.73
2022-11-16T04:12:02.527Z,24.15
2022-11-16T04:14:47.942Z,25.85
2022-11-16T04:17:37.749Z,25.85
2022-11-16T04:20:24.381Z,27.23
2022-11-16T04:23:13.989Z,25.02
2022-11-16T04:25:41.834Z,25.52
2022-11-16T04:28:16.786Z,28.88
2022-11-16T04:31:23.309Z,28.55
2022-11-16T04:34:20.110Z,30.23
2022-11-16T04:37:09.619Z,29.75
2022-11-16T04:39:36.457Z,28.40
2022-11-16T04:42:14.426Z,28.95
2022-11-16T04:45:01.081Z,29.33
2022-11-16T04:47:33.577Z,27.58
2022-11-16T04:50:00.365Z,25.90
2022-11-16T04:52:27.852Z,28.65
2022-11-16T04:54:55.893Z,31.05
2022-11-16T04:57:23.509Z,33.22
2022-11-16T04:59:50.669Z,32.55
2022-11-16T05:02:17.574Z,31.85
2022-11-16T05:04:49.668Z,33.33
2022-11-16T05:07:17.588Z,34.47
2022-11-16T05:09:47.762Z,32.25
2022-11-16T05:12:25.381Z,32.50
2022-11-16T05:14:57.763Z,30.48
2022-11-16T05:17:27.232Z,33.65
2022-11-16T05:22:55.151Z,32.85
2022-11-16T05:25:23.890Z,31.60
2022-11-16T05:27:50.673Z,34.33
2022-11-16T05:30:17.646Z,36.00
2022-11-16T05:32:44.650Z,33.80
2022-11-16T05:35:13.035Z,32.83
2022-11-16T05:37:40.043Z,30.85
2022-11-16T05:40:07.710Z,35.38
2022-11-16T05:42:41.932Z,32.08
2022-11-16T05:45:09.288Z,32.95
2022-11-16T05:47:36.192Z,35.17
2022-11-16T05:50:03.405Z,33.97
2022-11-16T05:52:35.469Z,31.38
2022-11-16T05:55:06.806Z,32.35
2022-11-16T05:57:39.970Z,34.03
2022-11-16T06:00:07.885Z,32.00
2022-11-16T06:02:41.819Z,32.55
2022-11-16T06:05:15.267Z,32.97
2022-11-16T06:07:42.298Z,30.17
2022-11-16T06:10:09.453Z,30.30
2022-11-16T06:12:36.411Z,29.02
2022-11-16T06:15:03.940Z,30.80
2022-11-16T06:17:33.868Z,30.10
2022-11-16T06:20:01.204Z,29.17
2022-11-16T06:22:28.003Z,29.48
2022-11-16T06:24:54.723Z,30.48
2022-11-16T06:27:21.665Z,28.23
2022-11-16T06:29:48.489Z,28.75
2022-11-16T06:32:15.279Z,29.25
2022-11-16T06:34:42.396Z,29.92
2022-11-16T06:37:09.531Z,29.10
2022-11-16T06:39:36.291Z,30.65
2022-11-16T06:42:03.071Z,30.73
2022-11-16T06:44:30.298Z,29.58
2022-11-16T06:47:01.005Z,29.23
2022-11-16T06:49:28.086Z,31.83
2022-11-16T06:51:58.809Z,32.72
2022-11-16T06:54:35.090Z,31.02
2022-11-16T06:57:02.638Z,30.27
2022-11-16T06:59:29.517Z,30.48
2022-11-16T07:01:56.413Z,29.23
2022-11-16T07:04:23.433Z,29.40
2022-11-16T07:06:54.771Z,32.42
2022-11-16T07:09:21.657Z,30.25
2022-11-16T07:11:48.391Z,32.25
2022-11-16T07:14:16.041Z,32.45
2022-11-16T07:16:43.585Z,32.78
2022-11-16T07:19:11.185Z,33.03
2022-11-16T07:21:38.863Z,32.53
2022-11-16T07:24:10.867Z,32.10
2022-11-16T07:26:37.683Z,31.27
2022-11-16T07:29:13.885Z,30.90
2022-11-16T07:31:45.500Z,31.55
2022-11-16T07:34:32.149Z,30.48
2022-11-16T07:37:08.073Z,29.40
2022-11-16T07:39:34.858Z,30.38
2022-11-16T07:42:03.541Z,31.15
2022-11-16T07:44:50.486Z,30.42
2022-11-16T07:47:17.235Z,30.88
2022-11-16T07:49:44.030Z,29.15
2022-11-16T07:52:16.715Z,30.17
2022-11-16T07:54:57.658Z,30.70
2022-11-16T07:57:26.691Z,30.75
2022-11-16T07:59:55.528Z,30.90
2022-11-16T08:02:22.570Z,30.33
2022-11-16T08:04:51.130Z,28.75
2022-11-16T08:07:22.190Z,31.20
2022-11-16T08:09:53.294Z,27.65
2022-11-16T08:12:21.285Z,28.08
2022-11-16T08:14:48.079Z,27.90
2022-11-16T08:17:15.164Z,27.23
2022-11-16T08:19:42.758Z,23.58
2022-11-16T08:22:13.149Z,24.25
2022-11-16T08:24:41.468Z,18.67
2022-11-16T08:27:09.122Z,20.67
2022-11-16T08:29:35.883Z,20.33
2022-11-16T08:32:04.889Z,18.85
2022-11-16T08:34:34.154Z,17.98
2022-11-16T08:37:00.961Z,17.65
2022-11-16T08:39:43.371Z,16.75
2022-11-16T08:42:10.144Z,19.08
2022-11-16T08:44:38.290Z,15.38
2022-11-16T08:47:10.287Z,17.05
2022-11-16T08:49:46.572Z,17.75
2022-11-16T08:52:16.382Z,19.15
2022-11-16T08:54:43.625Z,16.55
2022-11-16T08:57:11.180Z,16.55
2022-11-16T08:59:39.617Z,17.15
2022-11-16T09:02:10.789Z,16.70
2022-11-16T09:04:37.636Z,15.88
2022-11-16T09:07:04.713Z,16.88
2022-11-16T09:09:31.483Z,15.85
2022-11-16T09:11:58.222Z,15.57
2022-11-16T09:14:25.079Z,14.70
2022-11-16T09:16:52.323Z,15.38
2022-11-16T09:19:20.469Z,14.15
2022-11-16T09:21:47.203Z,13.95
2022-11-16T09:24:13.938Z,15.23
2022-11-16T09:26:40.665Z,15.50
2022-11-16T09:29:07.438Z,16.83
2022-11-16T09:31:34.914Z,18.10
2022-11-16T09:34:02.899Z,17.70
2022-11-16T09:36:30.103Z,17.42
2022-11-16T09:42:00.459Z,17.55
2022-11-16T09:44:37.843Z,16.88
2022-11-16T09:47:09.127Z,19.17
2022-11-16T09:49:42.510Z,17.08
2022-11-16T09:52:17.157Z,15.35
2022-11-16T09:54:45.423Z,17.27
2022-11-16T09:57:16.156Z,18.02
2022-11-16T09:59:52.037Z,16.67
2022-11-16T10:02:26.717Z,15.73
2022-11-16T10:05:21.963Z,16.85
2022-11-16T10:07:52.367Z,17.08
2022-11-16T10:10:28.646Z,16.77
2022-11-16T10:13:04.376Z,16.90
2022-11-16T10:15:50.602Z,15.60
2022-11-16T10:18:43.695Z,16.55
2022-11-16T10:22:08.624Z,17.65
2022-11-16T10:24:57.782Z,16.92
2022-11-16T10:27:37.910Z,17.60
2022-11-16T10:30:18.385Z,16.75
2022-11-16T10:33:13.091Z,16.42
2022-11-16T10:35:47.057Z,16.33
2022-11-16T10:38:17.047Z,16.67
2022-11-16T10:40:46.882Z,17.20
2022-11-16T10:43:14.641Z,19.65
2022-11-16T10:46:01.096Z,17.50
2022-11-16T10:48:42.623Z,18.75
2022-11-16T10:51:10.449Z,17.13
2022-11-16T10:53:42.495Z,21.80
2022-11-16T10:56:21.403Z,19.67
2022-11-16T10:59:05.735Z,21.05
2022-11-16T11:01:41.604Z,20.33
2022-11-16T11:04:28.932Z,16.98
2022-11-16T11:07:02.802Z,19.63
2022-11-16T11:09:33.121Z,16.95
2022-11-16T11:12:37.402Z,13.40
2022-11-16T11:15:25.927Z,14.27
2022-11-16T11:18:16.569Z,14.48
2022-11-16T11:20:45.391Z,13.98
2022-11-16T11:23:19.561Z,14.90
2022-11-16T11:25:54.668Z,15.27
2022-11-16T11:28:21.381Z,14.85
2022-11-16T11:31:00.506Z,14.57
2022-11-16T11:33:30.399Z,15.38
2022-11-16T11:36:06.324Z,12.40
2022-11-16T11:38:34.403Z,16.17
2022-11-16T11:43:29.754Z,14.32
2022-11-16T11:46:20.962Z,13.38
2022-11-16T11:48:52.084Z,14.90
2022-11-16T11:51:27.766Z,14.60
2022-11-16T11:53:56.687Z,15.88
2022-11-16T11:56:24.734Z,14.93
2022-11-16T12:04:42.973Z,14.77
2022-11-16T12:07:34.078Z,15.93
2022-11-16T12:10:21.725Z,16.10
2022-11-16T12:13:38.592Z,14.50
2022-11-16T12:16:08.260Z,14.57
2022-11-16T12:18:52.275Z,14.93
2022-11-16T12:21:31.976Z,15.30
2022-11-16T12:24:19.605Z,15.20
2022-11-16T12:27:13.954Z,14.32
2022-11-16T12:29:52.191Z,14.32
2022-11-16T12:32:29.166Z,14.20
2022-11-16T12:35:24.630Z,15.35
2022-11-16T12:38:03.972Z,15.13
2022-11-16T12:40:33.590Z,15.15
2022-11-16T12:43:14.551Z,14.20
2022-11-16T12:48:27.818Z,13.60
2022-11-16T12:50:58.999Z,13.60
2022-11-16T12:54:03.306Z,14.98
2022-11-16T12:56:49.255Z,15.57
2022-11-16T12:59:52.482Z,14.40
2022-11-16T13:02:31.357Z,14.25
2022-11-16T13:05:05.695Z,14.32
2022-11-16T13:07:39.803Z,14.20
2022-11-16T13:10:13.934Z,14.88
2022-11-16T13:12:42.611Z,14.20
2022-11-16T13:15:19.259Z,14.25
2022-11-16T13:18:00.523Z,14.45
2022-11-16T13:20:49.526Z,15.25
2022-11-16T13:23:31.976Z,13.75
2022-11-16T13:26:10.739Z,14.13
2022-11-16T13:28:57.518Z,15.13
2022-11-16T13:32:02.886Z,14.45
2022-11-16T13:34:33.083Z,14.40
2022-11-16T13:36:59.851Z,16.73
2022-11-16T13:39:57.559Z,14.48
2022-11-16T13:42:24.994Z,14.63
2022-11-16T13:44:52.227Z,15.82
2022-11-16T13:47:22.051Z,15.40
2022-11-16T13:49:57.484Z,15.82
2022-11-16T13:53:23.531Z,15.57
2022-11-16T13:55:34.375Z,15.82
2022-11-16T13:58:03.284Z,14.07
2022-11-16T14:00:35.395Z,16.60
2022-11-16T14:03:17.351Z,16.95
2022-11-16T14:05:45.413Z,14.68
2022-11-16T14:08:24.359Z,15.05
2022-11-16T14:10:51.049Z,15.10
2022-11-16T14:13:30.296Z,14.35
2022-11-16T14:16:15.148Z,14.68
2022-11-16T14:18:43.458Z,16.25
2022-11-16T14:21:19.229Z,14.50
2022-11-16T14:23:48.819Z,15.45
2022-11-16T14:26:46.418Z,13.50
2022-11-16T14:29:37.681Z,14.75
2022-11-16T14:32:17.927Z,13.90
2022-11-16T14:34:47.384Z,13.75
2022-11-16T14:37:35.309Z,14.43
2022-11-16T14:40:08.623Z,12.68
2022-11-16T14:43:09.408Z,14.40
2022-11-16T14:45:32.251Z,13.68
2022-11-16T14:48:20.159Z,12.82
2022-11-16T14:51:03.611Z,12.70
2022-11-16T14:53:31.014Z,13.15
2022-11-16T14:56:13.049Z,14.98
2022-11-16T14:58:40.057Z,15.85
2022-11-16T15:01:11.893Z,13.88
2022-11-16T15:03:52.511Z,17.73
2022-11-16T15:06:19.548Z,17.48
2022-11-16T15:08:54.493Z,18.13
2022-11-16T15:11:50.581Z,20.48
2022-11-16T15:14:20.591Z,20.10
2022-11-16T15:16:52.280Z,20.50
2022-11-16T15:19:19.530Z,21.15
2022-11-16T15:21:53.365Z,19.08
2022-11-16T15:24:30.987Z,18.35
2022-11-16T15:27:22.435Z,18.40
2022-11-16T15:29:49.399Z,18.13
2022-11-16T15:32:16.949Z,19.67
2022-11-16T15:34:48.092Z,20.38
2022-11-16T15:37:26.834Z,18.92
2022-11-16T15:39:54.272Z,18.35
2022-11-16T15:42:21.498Z,18.70
2022-11-16T15:44:48.319Z,17.58
2022-11-16T15:47:16.029Z,17.33
2022-11-16T15:49:44.110Z,17.30
2022-11-16T15:52:11.309Z,17.58
2022-11-16T15:54:57.023Z,17.52
2022-11-16T15:57:24.232Z,17.17
2022-11-16T15:59:56.794Z,16.58
2022-11-16T16:02:28.743Z,16.23
2022-11-16T16:04:55.554Z,15.13
2022-11-16T16:07:39.498Z,16.27
2022-11-16T16:10:13.823Z,15.27
2022-11-16T16:12:51.399Z,15.93
2022-11-16T16:15:21.510Z,15.70
2022-11-16T16:17:48.262Z,16.33
2022-11-16T16:20:29.227Z,16.75
2022-11-16T16:23:28.508Z,15.23
2022-11-16T16:25:55.213Z,16.33
2022-11-16T16:28:21.971Z,15.98
2022-11-16T16:30:51.418Z,17.85
2022-11-16T16:33:22.889Z,15.95
2022-11-16T16:35:52.503Z,18.33
2022-11-16T16:38:19.235Z,19.92
2022-11-16T16:40:46.011Z,19.83
2022-11-16T16:43:12.771Z,19.83
2022-11-16T16:45:43.116Z,20.33
2022-11-16T16:48:11.874Z,20.52
2022-11-16T16:50:38.921Z,20.20
2022-11-16T16:53:05.929Z,21.50
2022-11-16T16:55:37.492Z,21.42
2022-11-16T16:58:05.151Z,19.77
2022-11-16T17:00:32.075Z,21.63
2022-11-16T17:02:58.810Z,21.33
2022-11-16T17:05:26.670Z,20.13
2022-11-16T17:07:56.603Z,22.63
2022-11-16T17:10:23.395Z,21.40
2022-11-16T17:12:53.528Z,21.30
2022-11-16T17:15:20.517Z,24.95
2022-11-16T17:17:47.455Z,29.05
2022-11-16T17:20:14.759Z,23.45
2022-11-16T17:22:41.959Z,17.92
2022-11-16T17:25:09.722Z,17.55
2022-11-16T17:27:36.521Z,18.35
2022-11-16T17:30:04.405Z,16.90
2022-11-16T17:32:31.135Z,17.35
2022-11-16T17:34:57.902Z,15.48
2022-11-16T17:37:24.642Z,15.02
2022-11-16T17:39:51.391Z,18.60
2022-11-16T17:42:18.108Z,20.75
2022-11-16T17:44:44.843Z,20.85
2022-11-16T17:47:11.714Z,25.10
2022-11-16T17:49:38.552Z,27.30
2022-11-16T17:52:06.234Z,24.23
2022-11-16T17:54:33.102Z,25.77
2022-11-16T17:56:59.863Z,30.40
2022-11-16T17:59:29.434Z,33.42
2022-11-16T18:01:58.065Z,38.55
2022-11-16T18:04:25.331Z,34.80
2022-11-16T18:06:52.133Z,34.90
2022-11-16T18:09:19.041Z,37.05
2022-11-16T18:11:46.055Z,33.95
2022-11-16T18:14:12.883Z,34.78
2022-11-16T18:16:42.462Z,32.92
2022-11-16T18:19:11.920Z,33.92
2022-11-16T18:21:40.233Z,32.53
2022-11-16T18:24:07.463Z,34.55
2022-11-16T18:26:34.305Z,35.10
2022-11-16T18:29:01.084Z,28.77
2022-11-16T18:31:28.100Z,22.17
2022-11-16T18:33:54.820Z,20.88
2022-11-16T18:36:22.151Z,21.90
2022-11-16T18:38:49.116Z,22.75
2022-11-16T18:41:19.797Z,25.00
2022-11-16T18:43:50.304Z,24.75
2022-11-16T18:46:18.860Z,23.70
2022-11-16T18:48:46.743Z,25.40
2022-11-16T18:51:14.459Z,24.95
2022-11-16T18:53:41.184Z,23.33
2022-11-16T18:56:27.294Z,24.10
2022-11-16T18:58:54.025Z,21.65
2022-11-16T19:01:23.474Z,19.70
2022-11-16T19:03:51.567Z,20.33
2022-11-16T19:06:18.925Z,20.38
2022-11-16T19:08:51.815Z,18.58
2022-11-16T19:13:52.724Z,17.33
2022-11-16T19:16:19.479Z,20.35
2022-11-16T19:18:46.242Z,19.75
2022-11-16T19:21:14.933Z,20.73
2022-11-16T19:23:44.812Z,17.77
2022-11-16T19:26:13.387Z,17.80
2022-11-16T19:31:19.413Z,20.23
2022-11-16T19:33:46.574Z,19.25
2022-11-16T19:36:18.506Z,20.25
2022-11-16T19:38:48.149Z,24.70
2022-11-16T19:41:16.397Z,23.00
2022-11-16T19:43:43.239Z,21.17
2022-11-16T19:46:12.229Z,21.60
2022-11-16T19:48:39.247Z,21.75
2022-11-16T19:51:14.760Z,20.55
2022-11-16T19:53:41.599Z,22.70
2022-11-16T19:56:10.623Z,24.25
2022-11-16T19:58:38.610Z,24.60
2022-11-16T20:01:12.132Z,23.50
2022-11-16T20:03:40.369Z,23.55
2022-11-16T20:06:15.048Z,27.63
2022-11-16T20:08:43.373Z,24.23
2022-11-16T20:11:21.796Z,24.02
2022-11-16T20:13:49.494Z,24.05
2022-11-16T20:16:18.044Z,24.05
2022-11-16T20:21:23.585Z,22.40
2022-11-16T20:23:53.722Z,25.38
2022-11-16T20:26:21.183Z,23.85
2022-11-16T20:28:51.096Z,23.48
2022-11-16T20:31:19.883Z,26.00
2022-11-16T20:33:54.640Z,24.85
2022-11-16T20:36:25.282Z,26.05
2022-11-16T20:38:52.597Z,26.00
2022-11-16T20:41:25.182Z,22.85
2022-11-16T20:43:53.556Z,24.90
2022-11-16T20:46:21.936Z,25.92
2022-11-16T20:48:49.142Z,22.15
2022-11-16T20:51:18.342Z,23.90
2022-11-16T20:53:46.315Z,24.52
2022-11-16T20:56:14.217Z,22.17
2022-11-16T20:58:41.000Z,24.10
2022-11-16T21:01:11.175Z,22.17
2022-11-16T21:03:38.469Z,21.10
2022-11-16T21:06:08.732Z,22.85
2022-11-16T21:08:36.612Z,21.27
2022-11-16T21:11:10.012Z,20.90
2022-11-16T21:13:55.434Z,22.95
2022-11-16T21:16:22.334Z,22.50
2022-11-16T21:18:49.032Z,21.83
2022-11-16T21:21:15.755Z,19.85
2022-11-16T21:23:45.007Z,19.08
2022-11-16T21:26:14.091Z,19.30
2022-11-16T21:28:44.637Z,18.73
2022-11-16T21:31:25.420Z,18.40
2022-11-16T21:33:52.954Z,17.23
2022-11-16T21:36:21.700Z,17.05
2022-11-16T21:38:48.894Z,15.65
2022-11-16T21:41:17.272Z,18.20
2022-11-16T21:43:44.408Z,15.48
2022-11-16T21:46:12.197Z,14.82
2022-11-16T21:48:39.560Z,15.75
2022-11-16T21:51:08.626Z,15.95
2022-11-16T21:53:36.173Z,13.00
2022-11-16T21:56:04.054Z,14.48
2022-11-16T21:58:30.805Z,14.30
2022-11-16T22:00:59.490Z,15.95
2022-11-16T22:03:28.380Z,16.00
2022-11-16T22:06:15.808Z,15.75
2022-11-16T22:08:42.980Z,13.48
2022-11-16T22:11:10.337Z,14.35
2022-11-16T22:13:38.328Z,13.20
2022-11-16T22:16:13.127Z,13.13
2022-11-16T22:18:39.838Z,12.70
2022-11-16T22:21:07.006Z,12.95
2022-11-16T22:23:33.990Z,12.68
2022-11-16T22:26:08.786Z,14.15
2022-11-16T22:28:36.549Z,13.02
2022-11-16T22:31:04.334Z,14.52
2022-11-16T22:33:32.177Z,13.40
2022-11-16T22:35:59.592Z,13.40
2022-11-16T22:38:26.979Z,12.75
2022-11-16T22:40:55.780Z,13.32
2022-11-16T22:43:27.694Z,11.80
2022-11-16T22:45:58.990Z,11.07
2022-11-16T22:48:31.173Z,12.60
2022-11-16T22:51:02.599Z,12.20
2022-11-16T22:53:29.350Z,12.82
2022-11-16T22:55:56.052Z,11.70
2022-11-16T22:58:22.787Z,12.90
2022-11-16T23:00:49.617Z,12.52
2022-11-16T23:03:16.468Z,11.40
2022-11-16T23:05:43.245Z,11.77
2022-11-16T23:08:09.970Z,10.30
2022-11-16T23:10:56.677Z,12.63
2022-11-16T23:13:41.832Z,11.77
2022-11-16T23:16:08.719Z,10.75
2022-11-16T23:18:35.585Z,10.43
2022-11-16T23:21:40.700Z,10.55
2022-11-16T23:24:30.367Z,11.65
2022-11-16T23:27:16.364Z,10.95
2022-11-16T23:29:43.297Z,11.00
2022-11-16T23:32:10.236Z,11.23
2022-11-16T23:34:36.983Z,11.60
2022-11-16T23:37:07.761Z,11.23
2022-11-16T23:39:34.572Z,12.38
2022-11-16T23:42:19.884Z,11.68
2022-11-16T23:44:46.863Z,12.23
2022-11-16T23:47:13.693Z,11.75
2022-11-16T23:49:40.382Z,13.20
2022-11-16T23:52:07.487Z,12.30
2022-11-16T23:54:34.159Z,11.60
2022-11-16T23:57:00.920Z,11.32
2022-11-16T23:59:27.699Z,11.07
